sensor_id;sensor_type;location;lat;lon;timestamp;P1;durP1;ratioP1;P2;durP2;ratioP2
15381;SDS011;7789;51.364;12.358;2023-10-31T00:01:01;8.38;;;5.10;;
15381;SDS011;7789;51.364;12.358;2023-10-31T00:06:04;7.88;;;5.38;;
15381;SDS011;7789;51.364;12.358;2023-10-31T00:11:09;5.75;;;5.07;;
15381;SDS011;7789;51.364;12.358;2023-10-31T00:16:18;7.72;;;5.32;;
15381;SDS011;7789;51.364;12.358;2023-10-31T00:21:25;7.40;;;5.43;;
15381;SDS011;7789;51.364;12.358;2023-10-31T00:26:31;8.05;;;5.55;;
15381;SDS011;7789;51.364;12.358;2023-10-31T00:31:37;7.95;;;5.38;;
15381;SDS011;7789;51.364;12.358;2023-10-31T00:36:46;9.15;;;6.38;;
15381;SDS011;7789;51.364;12.358;2023-10-31T00:41:51;12.93;;;6.30;;
15381;SDS011;7789;51.364;12.358;2023-10-31T00:46:57;6.63;;;5.38;;
15381;SDS011;7789;51.364;12.358;2023-10-31T00:52:03;6.70;;;5.75;;
15381;SDS011;7789;51.364;12.358;2023-10-31T00:57:09;10.30;;;7.30;;
15381;SDS011;7789;51.364;12.358;2023-10-31T01:02:20;11.50;;;7.38;;
15381;SDS011;7789;51.364;12.358;2023-10-31T01:07:25;8.70;;;7.40;;
15381;SDS011;7789;51.364;12.358;2023-10-31T01:12:36;7.40;;;6.65;;
15381;SDS011;7789;51.364;12.358;2023-10-31T01:17:48;8.00;;;7.03;;
15381;SDS011;7789;51.364;12.358;2023-10-31T01:22:53;9.73;;;7.85;;
15381;SDS011;7789;51.364;12.358;2023-10-31T01:27:58;9.63;;;8.20;;
15381;SDS011;7789;51.364;12.358;2023-10-31T01:33:11;10.60;;;8.25;;
15381;SDS011;7789;51.364;12.358;2023-10-31T01:38:19;11.40;;;8.32;;
15381;SDS011;7789;51.364;12.358;2023-10-31T01:43:31;12.45;;;9.82;;
15381;SDS011;7789;51.364;12.358;2023-10-31T01:48:37;11.18;;;9.98;;
15381;SDS011;7789;51.364;12.358;2023-10-31T01:53:42;14.25;;;10.10;;
15381;SDS011;7789;51.364;12.358;2023-10-31T01:58:48;12.13;;;10.18;;
15381;SDS011;7789;51.364;12.358;2023-10-31T02:03:57;11.80;;;9.93;;
15381;SDS011;7789;51.364;12.358;2023-10-31T02:09:05;13.70;;;10.75;;
15381;SDS011;7789;51.364;12.358;2023-10-31T02:14:13;12.70;;;11.02;;
15381;SDS011;7789;51.364;12.358;2023-10-31T02:19:21;15.10;;;11.00;;
15381;SDS011;7789;51.364;12.358;2023-10-31T02:24:27;11.45;;;9.20;;
15381;SDS011;7789;51.364;12.358;2023-10-31T02:29:33;11.07;;;9.27;;
15381;SDS011;7789;51.364;12.358;2023-10-31T02:34:38;14.85;;;11.02;;
15381;SDS011;7789;51.364;12.358;2023-10-31T02:39:44;15.38;;;12.50;;
15381;SDS011;7789;51.364;12.358;2023-10-31T02:44:48;14.63;;;10.40;;
15381;SDS011;7789;51.364;12.358;2023-10-31T02:49:58;14.80;;;10.80;;
15381;SDS011;7789;51.364;12.358;2023-10-31T02:55:08;10.73;;;9.50;;
15381;SDS011;7789;51.364;12.358;2023-10-31T03:00:13;9.80;;;8.52;;
15381;SDS011;7789;51.364;12.358;2023-10-31T03:05:18;9.50;;;8.50;;
15381;SDS011;7789;51.364;12.358;2023-10-31T03:10:26;8.10;;;7.30;;
15381;SDS011;7789;51.364;12.358;2023-10-31T03:15:33;7.65;;;6.65;;
15381;SDS011;7789;51.364;12.358;2023-10-31T03:20:46;6.85;;;6.05;;
15381;SDS011;7789;51.364;12.358;2023-10-31T03:25:52;8.20;;;6.25;;
15381;SDS011;7789;51.364;12.358;2023-10-31T03:30:59;6.38;;;5.53;;
15381;SDS011;7789;51.364;12.358;2023-10-31T03:36:04;10.55;;;6.65;;
15381;SDS011;7789;51.364;12.358;2023-10-31T03:41:14;10.57;;;6.53;;
15381;SDS011;7789;51.364;12.358;2023-10-31T03:46:20;7.65;;;5.88;;
15381;SDS011;7789;51.364;12.358;2023-10-31T03:51:28;9.25;;;6.57;;
15381;SDS011;7789;51.364;12.358;2023-10-31T03:56:40;6.82;;;5.82;;
15381;SDS011;7789;51.364;12.358;2023-10-31T04:01:44;8.38;;;5.93;;
15381;SDS011;7789;51.364;12.358;2023-10-31T04:06:49;7.22;;;6.30;;
15381;SDS011;7789;51.364;12.358;2023-10-31T04:11:56;7.57;;;5.60;;
15381;SDS011;7789;51.364;12.358;2023-10-31T04:17:01;6.50;;;5.80;;
15381;SDS011;7789;51.364;12.358;2023-10-31T04:22:08;5.80;;;5.00;;
15381;SDS011;7789;51.364;12.358;2023-10-31T04:27:15;4.68;;;3.33;;
15381;SDS011;7789;51.364;12.358;2023-10-31T04:32:20;3.28;;;2.55;;
15381;SDS011;7789;51.364;12.358;2023-10-31T04:37:24;2.63;;;1.65;;
15381;SDS011;7789;51.364;12.358;2023-10-31T04:42:29;2.25;;;1.75;;
15381;SDS011;7789;51.364;12.358;2023-10-31T04:47:36;3.60;;;2.00;;
15381;SDS011;7789;51.364;12.358;2023-10-31T04:52:50;1.98;;;1.63;;
15381;SDS011;7789;51.364;12.358;2023-10-31T04:57:58;1.40;;;1.17;;
15381;SDS011;7789;51.364;12.358;2023-10-31T05:03:03;2.92;;;1.45;;
15381;SDS011;7789;51.364;12.358;2023-10-31T05:08:12;1.25;;;1.15;;
15381;SDS011;7789;51.364;12.358;2023-10-31T05:13:17;1.63;;;0.90;;
15381;SDS011;7789;51.364;12.358;2023-10-31T05:18:24;1.45;;;0.82;;
15381;SDS011;7789;51.364;12.358;2023-10-31T05:23:34;0.88;;;0.70;;
15381;SDS011;7789;51.364;12.358;2023-10-31T05:28:40;1.17;;;1.00;;
15381;SDS011;7789;51.364;12.358;2023-10-31T05:33:44;1.00;;;0.80;;
15381;SDS011;7789;51.364;12.358;2023-10-31T05:38:49;1.23;;;0.98;;
15381;SDS011;7789;51.364;12.358;2023-10-31T05:43:55;0.68;;;0.60;;
15381;SDS011;7789;51.364;12.358;2023-10-31T05:49:00;1.23;;;0.80;;
15381;SDS011;7789;51.364;12.358;2023-10-31T05:54:06;2.20;;;0.60;;
15381;SDS011;7789;51.364;12.358;2023-10-31T05:59:13;1.90;;;0.60;;
15381;SDS011;7789;51.364;12.358;2023-10-31T06:04:17;0.85;;;0.60;;
15381;SDS011;7789;51.364;12.358;2023-10-31T06:09:27;0.88;;;0.52;;
15381;SDS011;7789;51.364;12.358;2023-10-31T06:14:37;0.75;;;0.60;;
15381;SDS011;7789;51.364;12.358;2023-10-31T06:19:44;1.10;;;0.52;;
15381;SDS011;7789;51.364;12.358;2023-10-31T06:24:58;2.60;;;0.60;;
15381;SDS011;7789;51.364;12.358;2023-10-31T06:30:05;0.90;;;0.60;;
15381;SDS011;7789;51.364;12.358;2023-10-31T06:35:26;1.67;;;0.60;;
15381;SDS011;7789;51.364;12.358;2023-10-31T06:40:37;0.60;;;0.60;;
15381;SDS011;7789;51.364;12.358;2023-10-31T06:45:45;1.75;;;0.60;;
15381;SDS011;7789;51.364;12.358;2023-10-31T06:50:51;0.60;;;0.60;;
15381;SDS011;7789;51.364;12.358;2023-10-31T06:55:55;1.85;;;0.50;;
15381;SDS011;7789;51.364;12.358;2023-10-31T07:01:03;1.52;;;0.60;;
15381;SDS011;7789;51.364;12.358;2023-10-31T07:06:08;0.70;;;0.60;;
15381;SDS011;7789;51.364;12.358;2023-10-31T07:11:12;2.17;;;1.02;;
15381;SDS011;7789;51.364;12.358;2023-10-31T07:16:18;1.75;;;1.15;;
15381;SDS011;7789;51.364;12.358;2023-10-31T07:21:22;2.75;;;0.60;;
15381;SDS011;7789;51.364;12.358;2023-10-31T07:26:27;3.22;;;0.50;;
15381;SDS011;7789;51.364;12.358;2023-10-31T07:31:36;1.13;;;0.60;;
15381;SDS011;7789;51.364;12.358;2023-10-31T07:36:45;0.50;;;0.40;;
15381;SDS011;7789;51.364;12.358;2023-10-31T07:41:52;0.90;;;0.55;;
15381;SDS011;7789;51.364;12.358;2023-10-31T07:47:08;1.50;;;0.40;;
15381;SDS011;7789;51.364;12.358;2023-10-31T07:52:16;1.02;;;0.45;;
15381;SDS011;7789;51.364;12.358;2023-10-31T07:57:31;0.45;;;0.40;;
15381;SDS011;7789;51.364;12.358;2023-10-31T08:02:38;0.40;;;0.40;;
15381;SDS011;7789;51.364;12.358;2023-10-31T08:07:44;2.50;;;0.60;;
15381;SDS011;7789;51.364;12.358;2023-10-31T08:12:58;0.50;;;0.43;;
15381;SDS011;7789;51.364;12.358;2023-10-31T08:23:30;1.58;;;0.50;;
15381;SDS011;7789;51.364;12.358;2023-10-31T08:28:36;1.40;;;0.30;;
15381;SDS011;7789;51.364;12.358;2023-10-31T08:33:46;1.63;;;0.60;;
15381;SDS011;7789;51.364;12.358;2023-10-31T08:38:52;0.60;;;0.45;;
15381;SDS011;7789;51.364;12.358;2023-10-31T08:43:58;0.85;;;0.45;;
15381;SDS011;7789;51.364;12.358;2023-10-31T08:49:05;0.60;;;0.50;;
15381;SDS011;7789;51.364;12.358;2023-10-31T08:54:10;1.30;;;0.50;;
15381;SDS011;7789;51.364;12.358;2023-10-31T08:59:16;1.83;;;0.50;;
15381;SDS011;7789;51.364;12.358;2023-10-31T09:04:27;1.42;;;0.30;;
15381;SDS011;7789;51.364;12.358;2023-10-31T09:09:41;0.68;;;0.32;;
15381;SDS011;7789;51.364;12.358;2023-10-31T09:14:46;0.70;;;0.60;;
15381;SDS011;7789;51.364;12.358;2023-10-31T09:19:52;1.38;;;0.60;;
15381;SDS011;7789;51.364;12.358;2023-10-31T09:25:12;1.08;;;0.52;;
15381;SDS011;7789;51.364;12.358;2023-10-31T09:30:16;1.10;;;0.50;;
15381;SDS011;7789;51.364;12.358;2023-10-31T09:35:25;1.50;;;0.43;;
15381;SDS011;7789;51.364;12.358;2023-10-31T09:40:31;0.50;;;0.38;;
15381;SDS011;7789;51.364;12.358;2023-10-31T09:45:35;1.67;;;0.40;;
15381;SDS011;7789;51.364;12.358;2023-10-31T09:50:42;0.70;;;0.40;;
15381;SDS011;7789;51.364;12.358;2023-10-31T09:55:47;1.30;;;0.40;;
15381;SDS011;7789;51.364;12.358;2023-10-31T10:00:54;0.93;;;0.40;;
15381;SDS011;7789;51.364;12.358;2023-10-31T10:06:06;2.50;;;0.32;;
15381;SDS011;7789;51.364;12.358;2023-10-31T10:11:16;1.25;;;0.30;;
15381;SDS011;7789;51.364;12.358;2023-10-31T10:16:28;1.48;;;0.40;;
15381;SDS011;7789;51.364;12.358;2023-10-31T10:21:49;1.15;;;0.35;;
15381;SDS011;7789;51.364;12.358;2023-10-31T10:26:57;0.50;;;0.50;;
15381;SDS011;7789;51.364;12.358;2023-10-31T10:32:04;0.60;;;0.60;;
15381;SDS011;7789;51.364;12.358;2023-10-31T10:37:13;0.50;;;0.50;;
15381;SDS011;7789;51.364;12.358;2023-10-31T10:42:17;0.43;;;0.32;;
15381;SDS011;7789;51.364;12.358;2023-10-31T10:47:23;0.60;;;0.40;;
15381;SDS011;7789;51.364;12.358;2023-10-31T10:52:33;0.40;;;0.30;;
15381;SDS011;7789;51.364;12.358;2023-10-31T10:57:46;0.63;;;0.32;;
15381;SDS011;7789;51.364;12.358;2023-10-31T11:02:57;0.68;;;0.45;;
15381;SDS011;7789;51.364;12.358;2023-10-31T11:08:07;1.65;;;0.32;;
15381;SDS011;7789;51.364;12.358;2023-10-31T11:13:37;0.38;;;0.30;;
15381;SDS011;7789;51.364;12.358;2023-10-31T11:18:43;0.47;;;0.30;;
15381;SDS011;7789;51.364;12.358;2023-10-31T11:23:58;0.57;;;0.40;;
15381;SDS011;7789;51.364;12.358;2023-10-31T11:29:04;2.10;;;0.40;;
15381;SDS011;7789;51.364;12.358;2023-10-31T11:34:12;2.78;;;0.45;;
15381;SDS011;7789;51.364;12.358;2023-10-31T11:39:21;1.17;;;0.80;;
15381;SDS011;7789;51.364;12.358;2023-10-31T11:44:33;0.70;;;0.60;;
15381;SDS011;7789;51.364;12.358;2023-10-31T11:50:01;1.85;;;0.50;;
15381;SDS011;7789;51.364;12.358;2023-10-31T11:55:11;0.75;;;0.45;;
15381;SDS011;7789;51.364;12.358;2023-10-31T12:00:36;1.30;;;0.88;;
15381;SDS011;7789;51.364;12.358;2023-10-31T12:05:41;2.70;;;1.00;;
15381;SDS011;7789;51.364;12.358;2023-10-31T12:16:29;1.83;;;0.80;;
15381;SDS011;7789;51.364;12.358;2023-10-31T12:21:38;1.08;;;0.98;;
15381;SDS011;7789;51.364;12.358;2023-10-31T12:26:47;1.52;;;0.70;;
15381;SDS011;7789;51.364;12.358;2023-10-31T12:32:04;0.90;;;0.90;;
15381;SDS011;7789;51.364;12.358;2023-10-31T12:37:17;1.15;;;0.60;;
15381;SDS011;7789;51.364;12.358;2023-10-31T12:42:27;1.45;;;0.95;;
15381;SDS011;7789;51.364;12.358;2023-10-31T12:47:41;3.63;;;0.70;;
15381;SDS011;7789;51.364;12.358;2023-10-31T12:52:48;0.88;;;0.70;;
15381;SDS011;7789;51.364;12.358;2023-10-31T12:57:58;0.73;;;0.70;;
15381;SDS011;7789;51.364;12.358;2023-10-31T13:03:04;2.80;;;0.77;;
15381;SDS011;7789;51.364;12.358;2023-10-31T13:08:15;1.15;;;0.65;;
15381;SDS011;7789;51.364;12.358;2023-10-31T13:13:23;0.68;;;0.50;;
15381;SDS011;7789;51.364;12.358;2023-10-31T13:18:29;1.27;;;0.50;;
15381;SDS011;7789;51.364;12.358;2023-10-31T13:23:34;0.55;;;0.52;;
15381;SDS011;7789;51.364;12.358;2023-10-31T13:28:46;0.40;;;0.40;;
15381;SDS011;7789;51.364;12.358;2023-10-31T13:33:50;1.40;;;0.43;;
15381;SDS011;7789;51.364;12.358;2023-10-31T13:39:00;0.80;;;0.50;;
15381;SDS011;7789;51.364;12.358;2023-10-31T13:44:08;0.63;;;0.63;;
15381;SDS011;7789;51.364;12.358;2023-10-31T13:49:15;0.70;;;0.70;;
15381;SDS011;7789;51.364;12.358;2023-10-31T13:54:26;1.08;;;0.70;;
15381;SDS011;7789;51.364;12.358;2023-10-31T13:59:33;1.60;;;0.63;;
15381;SDS011;7789;51.364;12.358;2023-10-31T14:04:39;2.65;;;0.82;;
15381;SDS011;7789;51.364;12.358;2023-10-31T14:09:44;0.65;;;0.50;;
15381;SDS011;7789;51.364;12.358;2023-10-31T14:14:59;0.98;;;0.70;;
15381;SDS011;7789;51.364;12.358;2023-10-31T14:20:04;1.52;;;1.05;;
15381;SDS011;7789;51.364;12.358;2023-10-31T14:25:14;1.40;;;0.68;;
15381;SDS011;7789;51.364;12.358;2023-10-31T14:30:20;0.82;;;0.40;;
15381;SDS011;7789;51.364;12.358;2023-10-31T14:35:24;0.88;;;0.40;;
15381;SDS011;7789;51.364;12.358;2023-10-31T14:40:33;0.45;;;0.40;;
15381;SDS011;7789;51.364;12.358;2023-10-31T14:45:42;0.50;;;0.47;;
15381;SDS011;7789;51.364;12.358;2023-10-31T14:50:50;2.15;;;0.50;;
15381;SDS011;7789;51.364;12.358;2023-10-31T14:55:56;1.05;;;0.63;;
15381;SDS011;7789;51.364;12.358;2023-10-31T15:01:07;1.02;;;0.70;;
15381;SDS011;7789;51.364;12.358;2023-10-31T15:06:32;3.95;;;0.77;;
15381;SDS011;7789;51.364;12.358;2023-10-31T15:11:37;0.70;;;0.70;;
15381;SDS011;7789;51.364;12.358;2023-10-31T15:16:44;3.60;;;0.50;;
15381;SDS011;7789;51.364;12.358;2023-10-31T15:21:55;2.47;;;0.55;;
15381;SDS011;7789;51.364;12.358;2023-10-31T15:27:00;1.92;;;0.88;;
15381;SDS011;7789;51.364;12.358;2023-10-31T15:32:08;1.08;;;0.93;;
15381;SDS011;7789;51.364;12.358;2023-10-31T15:37:13;1.20;;;0.98;;
15381;SDS011;7789;51.364;12.358;2023-10-31T15:42:21;1.45;;;0.90;;
15381;SDS011;7789;51.364;12.358;2023-10-31T15:47:31;0.63;;;0.63;;
15381;SDS011;7789;51.364;12.358;2023-10-31T15:52:35;3.50;;;1.08;;
15381;SDS011;7789;51.364;12.358;2023-10-31T15:57:43;0.82;;;0.70;;
15381;SDS011;7789;51.364;12.358;2023-10-31T16:02:53;1.27;;;0.80;;
15381;SDS011;7789;51.364;12.358;2023-10-31T16:08:03;2.03;;;1.10;;
15381;SDS011;7789;51.364;12.358;2023-10-31T16:13:12;1.27;;;0.82;;
15381;SDS011;7789;51.364;12.358;2023-10-31T16:18:17;1.90;;;0.70;;
15381;SDS011;7789;51.364;12.358;2023-10-31T16:23:23;1.90;;;1.38;;
15381;SDS011;7789;51.364;12.358;2023-10-31T16:28:29;2.83;;;1.00;;
15381;SDS011;7789;51.364;12.358;2023-10-31T16:33:35;1.10;;;0.82;;
15381;SDS011;7789;51.364;12.358;2023-10-31T16:38:41;2.08;;;1.20;;
15381;SDS011;7789;51.364;12.358;2023-10-31T16:43:46;1.40;;;0.80;;
15381;SDS011;7789;51.364;12.358;2023-10-31T16:48:56;1.45;;;1.08;;
15381;SDS011;7789;51.364;12.358;2023-10-31T16:54:01;1.80;;;0.90;;
15381;SDS011;7789;51.364;12.358;2023-10-31T16:59:06;1.35;;;0.88;;
15381;SDS011;7789;51.364;12.358;2023-10-31T17:04:12;2.72;;;0.98;;
15381;SDS011;7789;51.364;12.358;2023-10-31T17:09:16;2.88;;;1.08;;
15381;SDS011;7789;51.364;12.358;2023-10-31T17:14:22;1.35;;;1.10;;
15381;SDS011;7789;51.364;12.358;2023-10-31T17:19:31;3.30;;;1.48;;
15381;SDS011;7789;51.364;12.358;2023-10-31T17:24:38;2.40;;;1.20;;
15381;SDS011;7789;51.364;12.358;2023-10-31T17:29:51;2.97;;;1.80;;
15381;SDS011;7789;51.364;12.358;2023-10-31T17:35:01;3.25;;;1.30;;
15381;SDS011;7789;51.364;12.358;2023-10-31T17:40:06;3.72;;;1.50;;
15381;SDS011;7789;51.364;12.358;2023-10-31T17:45:12;4.43;;;1.30;;
15381;SDS011;7789;51.364;12.358;2023-10-31T17:50:21;8.82;;;2.10;;
15381;SDS011;7789;51.364;12.358;2023-10-31T17:55:27;6.47;;;1.70;;
15381;SDS011;7789;51.364;12.358;2023-10-31T18:00:32;2.50;;;1.00;;
15381;SDS011;7789;51.364;12.358;2023-10-31T18:05:40;2.40;;;1.40;;
15381;SDS011;7789;51.364;12.358;2023-10-31T18:10:44;2.95;;;1.33;;
15381;SDS011;7789;51.364;12.358;2023-10-31T18:15:49;2.78;;;1.40;;
15381;SDS011;7789;51.364;12.358;2023-10-31T18:20:57;3.42;;;1.77;;
15381;SDS011;7789;51.364;12.358;2023-10-31T18:26:10;3.47;;;1.90;;
15381;SDS011;7789;51.364;12.358;2023-10-31T18:31:34;2.72;;;1.17;;
15381;SDS011;7789;51.364;12.358;2023-10-31T18:36:54;2.53;;;1.33;;
15381;SDS011;7789;51.364;12.358;2023-10-31T18:42:01;3.40;;;1.38;;
15381;SDS011;7789;51.364;12.358;2023-10-31T18:47:11;3.30;;;1.40;;
15381;SDS011;7789;51.364;12.358;2023-10-31T18:52:20;2.72;;;1.27;;
15381;SDS011;7789;51.364;12.358;2023-10-31T18:57:32;3.20;;;1.10;;
15381;SDS011;7789;51.364;12.358;2023-10-31T19:02:37;3.08;;;1.33;;
15381;SDS011;7789;51.364;12.358;2023-10-31T19:07:47;2.13;;;1.27;;
15381;SDS011;7789;51.364;12.358;2023-10-31T19:12:55;2.85;;;1.15;;
15381;SDS011;7789;51.364;12.358;2023-10-31T19:17:59;2.85;;;1.40;;
15381;SDS011;7789;51.364;12.358;2023-10-31T19:23:07;1.80;;;1.02;;
15381;SDS011;7789;51.364;12.358;2023-10-31T19:28:13;3.92;;;1.30;;
15381;SDS011;7789;51.364;12.358;2023-10-31T19:33:25;3.50;;;1.30;;
15381;SDS011;7789;51.364;12.358;2023-10-31T19:38:40;2.15;;;1.25;;
15381;SDS011;7789;51.364;12.358;2023-10-31T19:43:46;1.45;;;1.15;;
15381;SDS011;7789;51.364;12.358;2023-10-31T19:50:30;1.88;;;1.17;;
15381;SDS011;7789;51.364;12.358;2023-10-31T19:55:11;1.88;;;1.23;;
15381;SDS011;7789;51.364;12.358;2023-10-31T20:00:17;4.07;;;1.10;;
15381;SDS011;7789;51.364;12.358;2023-10-31T20:05:29;2.97;;;1.00;;
15381;SDS011;7789;51.364;12.358;2023-10-31T20:10:38;1.27;;;1.00;;
15381;SDS011;7789;51.364;12.358;2023-10-31T20:15:44;3.50;;;1.10;;
15381;SDS011;7789;51.364;12.358;2023-10-31T20:20:52;2.80;;;1.10;;
15381;SDS011;7789;51.364;12.358;2023-10-31T20:26:03;1.48;;;0.80;;
15381;SDS011;7789;51.364;12.358;2023-10-31T20:31:09;2.15;;;1.00;;
15381;SDS011;7789;51.364;12.358;2023-10-31T20:36:13;4.70;;;1.33;;
15381;SDS011;7789;51.364;12.358;2023-10-31T20:41:20;5.72;;;1.60;;
15381;SDS011;7789;51.364;12.358;2023-10-31T20:46:24;1.92;;;0.82;;
15381;SDS011;7789;51.364;12.358;2023-10-31T20:51:33;2.35;;;0.90;;
15381;SDS011;7789;51.364;12.358;2023-10-31T20:56:46;2.08;;;1.20;;
15381;SDS011;7789;51.364;12.358;2023-10-31T21:01:53;4.55;;;1.05;;
15381;SDS011;7789;51.364;12.358;2023-10-31T21:06:58;1.73;;;0.95;;
15381;SDS011;7789;51.364;12.358;2023-10-31T21:12:07;1.52;;;0.82;;
15381;SDS011;7789;51.364;12.358;2023-10-31T21:17:12;2.75;;;0.80;;
15381;SDS011;7789;51.364;12.358;2023-10-31T21:22:22;1.35;;;0.80;;
15381;SDS011;7789;51.364;12.358;2023-10-31T21:27:27;2.58;;;0.90;;
15381;SDS011;7789;51.364;12.358;2023-10-31T21:32:32;3.47;;;0.90;;
15381;SDS011;7789;51.364;12.358;2023-10-31T21:37:42;2.35;;;0.90;;
15381;SDS011;7789;51.364;12.358;2023-10-31T21:42:51;3.00;;;0.95;;
15381;SDS011;7789;51.364;12.358;2023-10-31T21:47:55;2.08;;;1.20;;
15381;SDS011;7789;51.364;12.358;2023-10-31T21:53:01;3.97;;;0.80;;
15381;SDS011;7789;51.364;12.358;2023-10-31T21:58:07;1.50;;;0.80;;
15381;SDS011;7789;51.364;12.358;2023-10-31T22:03:13;1.73;;;0.80;;
15381;SDS011;7789;51.364;12.358;2023-10-31T22:08:22;4.82;;;0.95;;
15381;SDS011;7789;51.364;12.358;2023-10-31T22:13:31;1.97;;;0.90;;
15381;SDS011;7789;51.364;12.358;2023-10-31T22:18:37;3.13;;;0.77;;
15381;SDS011;7789;51.364;12.358;2023-10-31T22:23:42;1.70;;;0.90;;
15381;SDS011;7789;51.364;12.358;2023-10-31T22:28:48;3.95;;;1.48;;
15381;SDS011;7789;51.364;12.358;2023-10-31T22:33:52;1.33;;;0.80;;
15381;SDS011;7789;51.364;12.358;2023-10-31T22:38:57;1.70;;;1.00;;
15381;SDS011;7789;51.364;12.358;2023-10-31T22:44:03;3.00;;;1.10;;
15381;SDS011;7789;51.364;12.358;2023-10-31T22:49:09;6.78;;;1.73;;
15381;SDS011;7789;51.364;12.358;2023-10-31T22:54:16;3.75;;;1.30;;
15381;SDS011;7789;51.364;12.358;2023-10-31T22:59:30;4.70;;;1.00;;
15381;SDS011;7789;51.364;12.358;2023-10-31T23:04:35;1.70;;;1.03;;
15381;SDS011;7789;51.364;12.358;2023-10-31T23:09:41;2.28;;;1.10;;
15381;SDS011;7789;51.364;12.358;2023-10-31T23:14:47;2.70;;;1.40;;
15381;SDS011;7789;51.364;12.358;2023-10-31T23:19:54;6.97;;;3.57;;
15381;SDS011;7789;51.364;12.358;2023-10-31T23:24:58;7.80;;;4.10;;
15381;SDS011;7789;51.364;12.358;2023-10-31T23:30:05;6.57;;;2.80;;
15381;SDS011;7789;51.364;12.358;2023-10-31T23:35:11;5.85;;;3.10;;
15381;SDS011;7789;51.364;12.358;2023-10-31T23:40:21;6.60;;;2.85;;
15381;SDS011;7789;51.364;12.358;2023-10-31T23:45:28;4.88;;;2.92;;
15381;SDS011;7789;51.364;12.358;2023-10-31T23:50:32;5.90;;;2.78;;
15381;SDS011;7789;51.364;12.358;2023-10-31T23:55:37;4.40;;;2.20;;
